createdAt,value
2018-08-19T19:21:11.546Z,3.20
2018-08-19T19:22:11.532Z,4.70
2018-08-19T19:23:11.544Z,5.40
2018-08-19T19:24:11.568Z,5.70
2018-08-19T19:25:11.545Z,4.90
2018-08-19T19:26:11.554Z,5.00
2018-08-19T19:27:11.559Z,4.60
2018-08-19T19:28:11.629Z,4.70
2018-08-19T19:29:11.573Z,4.90
2018-08-19T19:30:11.575Z,5.00
2018-08-19T19:31:11.589Z,5.50
2018-08-19T19:32:11.586Z,4.80
2018-08-19T19:33:11.601Z,4.50
2018-08-19T19:34:11.655Z,4.60
2018-08-19T19:35:11.609Z,4.60
2018-08-19T19:36:11.610Z,5.10
2018-08-19T19:37:11.626Z,5.00
2018-08-19T19:38:11.626Z,4.70
2018-08-19T19:39:11.632Z,5.10
2018-08-19T19:40:11.642Z,4.90
2018-08-19T19:41:11.644Z,4.90
2018-08-19T19:42:11.649Z,5.30
2018-08-19T19:43:11.660Z,4.70
2018-08-19T19:44:11.662Z,4.60
2018-08-19T19:45:11.674Z,4.80
2018-08-19T19:46:11.674Z,4.80
2018-08-19T19:47:11.691Z,4.70
2018-08-19T19:48:11.694Z,4.90
2018-08-19T19:49:11.694Z,4.60
2018-08-19T19:50:11.705Z,4.70
2018-08-19T19:51:11.705Z,5.20
2018-08-19T19:52:11.729Z,6.00
2018-08-19T19:53:11.718Z,5.90
2018-08-19T19:54:11.734Z,5.50
2018-08-19T19:55:11.730Z,5.00
2018-08-19T19:56:11.856Z,5.30
2018-08-19T19:57:11.800Z,5.60
2018-08-19T19:58:11.747Z,4.60
2018-08-19T19:59:11.758Z,4.70
2018-08-19T20:00:11.782Z,4.70
2018-08-19T20:01:11.767Z,4.70
2018-08-19T20:02:11.779Z,5.00
2018-08-19T20:03:11.778Z,4.70
2018-08-19T20:04:11.785Z,4.80
2018-08-19T20:05:11.797Z,5.30
2018-08-19T20:06:11.799Z,5.40
2018-08-19T20:07:11.810Z,5.50
2018-08-19T20:08:11.809Z,4.70
2018-08-19T20:09:11.820Z,5.30
2018-08-19T20:10:11.823Z,5.30
2018-08-19T20:11:11.832Z,5.00
2018-08-19T20:12:11.833Z,5.00
2018-08-19T20:13:11.839Z,5.10
2018-08-19T20:14:11.850Z,5.10
2018-08-19T20:15:11.852Z,4.90
2018-08-19T20:16:11.856Z,4.70
2018-08-19T20:17:11.868Z,4.40
2018-08-19T20:18:11.871Z,4.60
2018-08-19T20:19:11.876Z,4.80
2018-08-19T20:20:11.888Z,5.30
2018-08-19T20:21:11.887Z,5.00
2018-08-19T20:22:11.894Z,4.80
2018-08-19T20:23:11.902Z,5.10
2018-08-19T20:24:11.906Z,4.80
2018-08-19T20:25:11.918Z,4.90
2018-08-19T20:26:11.944Z,4.90
2018-08-19T20:27:11.923Z,6.20
2018-08-19T20:28:11.948Z,4.80
2018-08-19T20:29:11.938Z,4.70
2018-08-19T20:30:11.941Z,4.60
2018-08-19T20:31:11.956Z,4.40
2018-08-19T20:32:11.960Z,4.50
2018-08-19T20:33:12.027Z,4.30
2018-08-19T20:34:12.015Z,4.30
2018-08-19T20:35:11.977Z,4.20
2018-08-19T20:36:11.978Z,4.30
2018-08-19T20:37:11.991Z,3.70
2018-08-19T20:38:11.996Z,4.40
2018-08-19T20:39:12.005Z,5.10
2018-08-19T20:40:12.007Z,4.10
2018-08-19T20:41:12.012Z,4.50
2018-08-19T20:42:12.020Z,4.30
2018-08-19T20:43:12.036Z,4.50
2018-08-19T20:44:12.036Z,3.80
2018-08-19T20:45:12.039Z,4.30
2018-08-19T20:46:12.048Z,4.30
2018-08-19T20:47:12.059Z,4.20
2018-08-19T20:48:12.052Z,4.00
2018-08-19T20:49:12.074Z,4.50
2018-08-19T20:50:12.184Z,4.20
2018-08-19T20:51:12.081Z,4.50
2018-08-19T20:52:12.084Z,4.70
2018-08-19T20:53:12.086Z,4.00
2018-08-19T20:54:12.101Z,4.60
2018-08-19T20:55:12.097Z,4.10
2018-08-19T20:56:12.112Z,3.90
2018-08-19T20:57:12.114Z,4.70
2018-08-19T20:58:12.121Z,4.70
2018-08-19T20:59:12.122Z,4.20
2018-08-19T21:00:12.128Z,4.30
2018-08-19T21:01:12.141Z,4.40
2018-08-19T21:02:12.140Z,4.40
2018-08-19T21:03:12.146Z,4.10
2018-08-19T21:04:12.159Z,4.80
2018-08-19T21:05:12.261Z,4.30
2018-08-19T21:06:12.172Z,4.70
2018-08-19T21:07:12.174Z,4.30
2018-08-19T21:08:12.174Z,4.10
2018-08-19T21:09:12.189Z,4.20
2018-08-19T21:10:12.188Z,4.10
2018-08-19T21:11:12.201Z,4.10
2018-08-19T21:12:12.205Z,4.20
2018-08-19T21:13:12.209Z,4.10
2018-08-19T21:14:12.213Z,4.80
2018-08-19T21:15:12.225Z,4.60
2018-08-19T21:16:12.231Z,4.30
2018-08-19T21:17:12.237Z,4.30
2018-08-19T21:18:12.246Z,4.40
2018-08-19T21:19:12.247Z,4.30
2018-08-19T21:20:12.249Z,4.80
2018-08-19T21:21:12.262Z,5.00
2018-08-19T21:22:12.264Z,4.80
2018-08-19T21:23:12.274Z,4.30
2018-08-19T21:24:12.278Z,4.80
2018-08-19T21:25:12.280Z,4.30
2018-08-19T21:26:12.293Z,4.40
2018-08-19T21:27:12.293Z,4.40
2018-08-19T21:28:12.301Z,4.80
2018-08-19T21:29:12.311Z,4.80
2018-08-19T21:30:12.397Z,5.10
2018-08-19T21:31:12.326Z,4.70
2018-08-19T21:32:12.322Z,4.70
2018-08-19T21:33:12.331Z,4.80
2018-08-19T21:34:12.341Z,5.30
2018-08-19T21:35:12.340Z,4.80
2018-08-19T21:36:12.347Z,5.20
2018-08-19T21:37:12.359Z,4.90
2018-08-19T21:38:12.374Z,5.00
2018-08-19T21:39:12.365Z,4.90
2018-08-19T21:40:12.377Z,5.00
2018-08-19T21:41:12.376Z,5.10
2018-08-19T21:42:12.382Z,5.10
2018-08-19T21:43:12.391Z,4.90
2018-08-19T21:44:12.396Z,4.90
2018-08-19T21:45:12.404Z,5.00
2018-08-19T21:46:12.406Z,5.00
2018-08-19T21:47:12.412Z,4.90
2018-08-19T21:48:12.419Z,5.00
2018-08-19T21:49:12.426Z,5.30
2018-08-19T21:50:12.428Z,4.90
2018-08-19T21:51:12.441Z,5.10
2018-08-19T21:52:12.449Z,4.50
2018-08-19T21:53:12.452Z,4.50
2018-08-19T21:54:12.458Z,4.50
2018-08-19T21:55:13.039Z,5.30
2018-08-19T21:56:12.465Z,5.20
2018-08-19T21:57:12.479Z,4.60
2018-08-19T21:58:12.485Z,5.20
2018-08-19T21:59:12.490Z,5.00
2018-08-19T22:00:12.493Z,5.30
2018-08-19T22:01:12.497Z,4.90
2018-08-19T22:02:12.504Z,5.10
2018-08-19T22:03:12.514Z,5.20
2018-08-19T22:04:12.514Z,5.70
2018-08-19T22:05:12.524Z,5.10
2018-08-19T22:06:12.531Z,5.40
2018-08-19T22:07:12.551Z,4.80
2018-08-19T22:08:12.538Z,5.30
2018-08-19T22:09:12.550Z,5.50
2018-08-19T22:10:12.557Z,5.60
2018-08-19T22:11:12.560Z,5.30
2018-08-19T22:12:12.576Z,5.10
2018-08-19T22:13:12.567Z,5.20
2018-08-19T22:14:12.573Z,5.00
2018-08-19T22:15:12.584Z,5.50
2018-08-19T22:16:12.587Z,5.30
2018-08-19T22:17:12.595Z,5.20
2018-08-19T22:18:12.602Z,5.00
2018-08-19T22:19:12.634Z,5.40
2018-08-19T22:20:12.614Z,5.60
2018-08-19T22:21:12.615Z,6.10
2018-08-19T22:22:12.620Z,5.10
2018-08-19T22:23:12.632Z,5.60
2018-08-19T22:24:12.634Z,5.60
2018-08-19T22:25:12.643Z,5.80
2018-08-19T22:26:12.644Z,5.50
2018-08-19T22:27:12.654Z,6.10
2018-08-19T22:28:12.661Z,5.80
2018-08-19T22:29:12.663Z,5.90
2018-08-19T22:30:12.672Z,5.80
2018-08-19T22:31:12.675Z,5.60
2018-08-19T22:32:12.683Z,5.60
2018-08-19T22:33:12.692Z,5.90
2018-08-19T22:34:12.691Z,6.20
2018-08-19T22:35:12.699Z,6.10
2018-08-19T22:36:12.704Z,6.10
2018-08-19T22:37:12.708Z,6.10
2018-08-19T22:38:12.722Z,5.90
2018-08-19T22:39:12.725Z,5.80
2018-08-19T22:40:12.787Z,6.20
2018-08-19T22:41:12.740Z,6.00
2018-08-19T22:42:12.743Z,6.40
2018-08-19T22:43:12.744Z,6.00
2018-08-19T22:44:12.756Z,5.60
2018-08-19T22:45:12.757Z,5.90
2018-08-19T22:46:12.765Z,6.70
2018-08-19T22:47:12.784Z,6.10
2018-08-19T22:48:12.780Z,6.20
2018-08-19T22:49:12.781Z,6.40
2018-08-19T22:50:12.791Z,6.40
2018-08-19T22:51:12.795Z,6.00
2018-08-19T22:52:12.801Z,6.10
2018-08-19T22:53:12.811Z,6.30
2018-08-19T22:54:12.811Z,6.20
2018-08-19T22:55:12.815Z,6.50
2018-08-19T22:56:12.826Z,6.00
2018-08-19T22:57:12.839Z,6.40
2018-08-19T22:58:12.831Z,6.80
2018-08-19T22:59:12.842Z,6.80
2018-08-19T23:00:12.848Z,6.30
2018-08-19T23:01:12.857Z,6.00
2018-08-19T23:02:12.859Z,6.90
2018-08-19T23:03:12.863Z,6.40
2018-08-19T23:04:12.870Z,7.00
2018-08-19T23:05:12.882Z,6.60
2018-08-19T23:06:12.890Z,6.30
2018-08-19T23:07:12.892Z,6.70
2018-08-19T23:08:12.896Z,6.30
2018-08-19T23:09:12.893Z,6.90
2018-08-19T23:10:12.909Z,6.30
2018-08-19T23:11:12.909Z,6.60
2018-08-19T23:12:12.915Z,7.00
2018-08-19T23:13:12.926Z,6.70
2018-08-19T23:14:12.927Z,6.50
2018-08-19T23:15:12.932Z,6.60
2018-08-19T23:16:12.947Z,6.40
2018-08-19T23:17:12.943Z,6.30
2018-08-19T23:18:12.951Z,6.70
2018-08-19T23:19:12.960Z,6.90
2018-08-19T23:20:12.967Z,6.80
2018-08-19T23:21:12.966Z,6.80
2018-08-19T23:22:12.976Z,6.30
2018-08-19T23:23:12.984Z,6.90
2018-08-19T23:24:12.983Z,7.00
2018-08-19T23:25:12.998Z,6.60
2018-08-19T23:26:13.001Z,6.70
2018-08-19T23:27:13.001Z,6.40
2018-08-19T23:28:13.011Z,6.30
2018-08-19T23:29:13.024Z,6.60
2018-08-19T23:30:13.025Z,7.00
2018-08-19T23:31:13.028Z,7.40
2018-08-19T23:32:13.036Z,7.10
2018-08-19T23:33:13.038Z,7.00
2018-08-19T23:34:13.044Z,6.60
2018-08-19T23:35:13.049Z,7.10
2018-08-19T23:36:13.055Z,7.40
2018-08-19T23:37:13.070Z,6.70
2018-08-19T23:38:13.068Z,6.90
2018-08-19T23:39:13.077Z,6.90
2018-08-19T23:40:13.077Z,6.80
2018-08-19T23:41:13.082Z,7.20
2018-08-19T23:42:13.095Z,6.80
2018-08-19T23:43:13.092Z,7.70
2018-08-19T23:44:13.103Z,7.00
2018-08-19T23:45:13.108Z,7.30
2018-08-19T23:46:13.118Z,7.00
2018-08-19T23:47:13.117Z,7.00
2018-08-19T23:48:13.124Z,7.30
2018-08-19T23:49:13.132Z,7.20
2018-08-19T23:50:13.138Z,7.30
2018-08-19T23:51:13.146Z,6.80
2018-08-19T23:52:13.153Z,6.70
2018-08-19T23:53:13.151Z,7.10
2018-08-19T23:54:13.158Z,7.60
2018-08-19T23:55:13.166Z,7.50
2018-08-19T23:56:13.174Z,6.80
2018-08-19T23:57:13.187Z,7.40
2018-08-19T23:58:13.180Z,7.30
2018-08-19T23:59:13.193Z,7.30
